Time;durP1;ratioP1;P1;durP2;ratioP2;P2;SDS_P1;SDS_P2;PMS_P1;PMS_P2;Temp;Humidity;BMP_temperature;BMP_pressure;BME280_temperature;BME280_humidity;BME280_pressure;Samples;Min_cycle;Max_cycle;Signal;HPM_P1;HPM_P2
2024/02/27 00:01:46;;;;;;;;;;;;;;;10.44;100.00;98791.09;5051796;28;19916;-82
2024/02/27 00:04:11;;;;;;;;;;;;;;;10.42;100.00;98793.53;5052736;28;19921;-80
2024/02/27 00:06:37;;;;;;;;;;;;;;;10.44;100.00;98785.56;5052628;28;20400;-80
2024/02/27 00:09:02;;;;;;;;;;;;;;;10.44;98.50;98783.59;5052409;28;20442;-81
2024/02/27 00:11:29;;;;;;;;;;;;;;;10.45;98.14;98787.91;5053338;28;19917;-82
2024/02/27 00:13:54;;;;;;;;;;;;;;;10.36;98.04;98773.94;5052681;28;20373;-83
2024/02/27 00:16:20;;;;;;;;;;;;;;;10.31;98.87;98787.50;5052376;28;19924;-82
2024/02/27 00:18:47;;;;;;;;;;;;;;;10.28;97.61;98783.59;5052858;28;19916;-81
2024/02/27 00:21:12;;;;;;;;;;;;;;;10.29;95.69;98785.16;5053460;28;19960;-79
2024/02/27 00:23:38;;;;;;;;;;;;;;;10.30;94.88;98792.25;5052326;28;20364;-82
2024/02/27 00:26:03;;;;;;;;;;;;;;;10.35;94.20;98791.72;5051615;28;19973;-81
2024/02/27 00:28:28;;;;;;;;;;;;;;;10.37;92.80;98797.56;5052272;28;19917;-82
2024/02/27 00:30:54;;;;;;;;;;;;;;;10.36;93.06;98785.00;5052148;28;19932;-82
2024/02/27 00:33:19;;;;;;;;;;;;;;;10.36;93.70;98793.28;5052207;28;19913;-80
2024/02/27 00:35:44;;;;;;;;;;;;;;;10.40;91.21;98796.72;5051807;28;19913;-81
2024/02/27 00:38:10;;;;;;;;;;;;;;;10.42;91.64;98801.81;5052166;28;20004;-80
2024/02/27 00:40:36;;;;;;;;;;;;;;;10.46;91.00;98799.72;5051679;28;19970;-80
2024/02/27 00:43:01;;;;;;;;;;;;;;;10.46;93.43;98808.03;5051649;28;19921;-79
2024/02/27 00:45:27;;;;;;;;;;;;;;;10.45;92.75;98798.97;5051394;28;19921;-79
2024/02/27 00:47:52;;;;;;;;;;;;;;;10.45;92.27;98807.25;5051900;28;19956;-80
2024/02/27 00:50:18;;;;;;;;;;;;;;;10.42;91.84;98802.59;5051814;28;20011;-81
2024/02/27 00:52:43;;;;;;;;;;;;;;;10.38;91.69;98793.59;5051948;28;19913;-81
2024/02/27 00:55:09;;;;;;;;;;;;;;;10.42;91.48;98797.06;5051661;28;20020;-82
2024/02/27 00:57:34;;;;;;;;;;;;;;;10.39;91.51;98792.41;5051831;28;19967;-82
2024/02/27 01:00:07;;;;;;;;;;;;;;;10.40;91.07;98793.97;5051108;28;20016;-79
2024/02/27 01:02:33;;;;;;;;;;;;;;;10.43;92.26;98790.31;5051545;28;19920;-81
2024/02/27 01:04:58;;;;;;;;;;;;;;;10.46;92.52;98788.69;5051468;28;19921;-81
2024/02/27 01:07:23;;;;;;;;;;;;;;;10.38;92.27;98796.38;5051608;28;20009;-80
2024/02/27 01:09:49;;;;;;;;;;;;;;;10.38;91.62;98792.81;5051532;28;19913;-80
2024/02/27 01:12:14;;;;;;;;;;;;;;;10.37;92.14;98792.03;5051425;28;19919;-80
2024/02/27 01:14:39;;;;;;;;;;;;;;;10.33;92.38;98796.91;5051281;28;19956;-80
2024/02/27 01:17:05;;;;;;;;;;;;;;;10.32;93.18;98789.81;5051659;28;19923;-81
2024/02/27 01:19:30;;;;;;;;;;;;;;;10.31;92.91;98782.72;5051623;28;19917;-79
2024/02/27 01:21:58;;;;;;;;;;;;;;;10.27;92.41;98792.31;5051515;28;19921;-81
2024/02/27 01:24:23;;;;;;;;;;;;;;;10.23;92.69;98792.41;5051333;28;19971;-81
2024/02/27 01:26:49;;;;;;;;;;;;;;;10.20;92.94;98785.75;5051382;28;19960;-80
2024/02/27 01:29:14;;;;;;;;;;;;;;;10.16;93.47;98787.84;5051252;28;20411;-81
2024/02/27 01:31:39;;;;;;;;;;;;;;;10.16;93.18;98785.09;5051467;28;19917;-80
2024/02/27 01:34:04;;;;;;;;;;;;;;;10.15;93.37;98779.94;5050979;28;20410;-81
2024/02/27 01:36:31;;;;;;;;;;;;;;;10.12;94.82;98783.59;5054411;28;19917;-81
2024/02/27 01:38:56;;;;;;;;;;;;;;;10.09;95.69;98785.22;5055307;28;19920;-79
2024/02/27 01:41:21;;;;;;;;;;;;;;;10.01;97.01;98783.81;5055508;28;19963;-80
2024/02/27 01:43:47;;;;;;;;;;;;;;;10.00;98.48;98784.28;5055275;28;19992;-81
2024/02/27 01:46:16;;;;;;;;;;;;;;;9.98;97.89;98784.69;5055889;28;20011;-82
2024/02/27 01:48:43;;;;;;;;;;;;;;;10.01;98.20;98780.28;5055295;28;19913;-81
2024/02/27 01:51:10;;;;;;;;;;;;;;;10.01;98.68;98775.53;5055382;28;19951;-81
2024/02/27 01:53:36;;;;;;;;;;;;;;;9.94;98.10;98777.72;5055104;28;20380;-81
2024/02/27 01:56:02;;;;;;;;;;;;;;;9.96;97.99;98781.59;5055331;28;19920;-81
2024/02/27 01:58:27;;;;;;;;;;;;;;;9.96;98.23;98783.56;5054715;28;20510;-82
2024/02/27 02:00:52;;;;;;;;;;;;;;;9.98;97.63;98776.41;5055089;28;19913;-80
2024/02/27 02:03:20;;;;;;;;;;;;;;;10.02;97.24;98777.09;5054511;28;19952;-82
2024/02/27 02:05:45;;;;;;;;;;;;;;;10.06;97.50;98786.09;5055032;28;19925;-81
2024/02/27 02:08:11;;;;;;;;;;;;;;;10.09;97.23;98776.94;5054846;28;19999;-81
2024/02/27 02:10:36;;;;;;;;;;;;;;;10.10;97.80;98780.47;5054605;28;20381;-81
2024/02/27 02:13:02;;;;;;;;;;;;;;;10.10;96.89;98784.00;5054553;28;19917;-80
2024/02/27 02:15:27;;;;;;;;;;;;;;;10.06;96.66;98786.09;5054888;28;19956;-79
2024/02/27 02:17:53;;;;;;;;;;;;;;;10.08;97.08;98780.91;5054812;28;19960;-80
2024/02/27 02:20:18;;;;;;;;;;;;;;;10.01;96.48;98783.81;5054751;28;20381;-81
2024/02/27 02:22:44;;;;;;;;;;;;;;;9.98;96.46;98792.97;5054016;28;19917;-82
2024/02/27 02:25:10;;;;;;;;;;;;;;;9.98;96.94;98789.44;5054336;28;19917;-80
2024/02/27 02:27:38;;;;;;;;;;;;;;;10.00;96.15;98789.78;5053760;28;19921;-81
2024/02/27 02:30:03;;;;;;;;;;;;;;;9.98;96.43;98784.69;5054714;28;19917;-81
2024/02/27 02:32:28;;;;;;;;;;;;;;;9.90;96.52;98780.53;5054064;28;19932;-80
2024/02/27 02:34:54;;;;;;;;;;;;;;;9.86;97.19;98790.13;5054423;28;19924;-81
2024/02/27 02:37:21;;;;;;;;;;;;;;;9.77;96.95;98794.22;5055311;28;20312;-80
2024/02/27 02:39:46;;;;;;;;;;;;;;;9.72;96.56;98789.22;5054127;28;19920;-81
2024/02/27 02:42:12;;;;;;;;;;;;;;;9.77;97.70;98790.69;5054141;28;19917;-82
2024/02/27 02:44:37;;;;;;;;;;;;;;;9.82;97.37;98786.66;5054319;28;19921;-81
2024/02/27 02:47:02;;;;;;;;;;;;;;;9.76;98.12;98789.91;5053659;28;19924;-81
2024/02/27 02:49:27;;;;;;;;;;;;;;;9.72;98.10;98796.72;5053247;28;20023;-81
2024/02/27 02:51:53;;;;;;;;;;;;;;;9.73;98.99;98795.53;5053776;28;20359;-81
2024/02/27 02:54:18;;;;;;;;;;;;;;;9.71;97.76;98795.94;5054060;28;19917;-81
2024/02/27 02:56:43;;;;;;;;;;;;;;;9.70;98.96;98796.41;5053854;28;19963;-80
2024/02/27 02:59:08;;;;;;;;;;;;;;;9.69;99.09;98797.59;5054002;28;19924;-82
2024/02/27 03:01:34;;;;;;;;;;;;;;;9.67;98.83;98791.72;5053776;28;20400;-82
2024/02/27 03:03:59;;;;;;;;;;;;;;;9.59;99.00;98801.34;5053614;28;19920;-83
2024/02/27 03:06:24;;;;;;;;;;;;;;;9.57;98.36;98812.03;5053626;28;20358;-80
2024/02/27 03:08:50;;;;;;;;;;;;;;;9.45;97.42;98805.22;5054019;28;20011;-82
2024/02/27 03:11:16;;;;;;;;;;;;;;;9.32;99.61;98804.28;5053835;28;19913;-81
2024/02/27 03:13:42;;;;;;;;;;;;;;;9.24;99.85;98805.63;5053517;28;20380;-82
2024/02/27 03:16:08;;;;;;;;;;;;;;;9.23;100.00;98815.09;5054810;28;20427;-82
2024/02/27 03:18:33;;;;;;;;;;;;;;;9.17;100.00;98805.78;5053793;28;19917;-82
2024/02/27 03:20:58;;;;;;;;;;;;;;;9.14;100.00;98812.16;5054819;28;19924;-81
2024/02/27 03:23:23;;;;;;;;;;;;;;;9.16;100.00;98815.25;5053496;28;19924;-81
2024/02/27 03:25:49;;;;;;;;;;;;;;;9.17;100.00;98814.03;5053489;28;19931;-82
2024/02/27 03:28:14;;;;;;;;;;;;;;;9.11;100.00;98818.50;5053356;28;20404;-81
2024/02/27 03:30:39;;;;;;;;;;;;;;;9.11;100.00;98808.25;5053588;28;19923;-81
2024/02/27 03:33:05;;;;;;;;;;;;;;;9.15;100.00;98816.47;5053382;28;19917;-81
2024/02/27 03:35:30;;;;;;;;;;;;;;;9.15;100.00;98814.47;5052939;28;19947;-82
2024/02/27 03:37:55;;;;;;;;;;;;;;;9.07;100.00;98804.00;5053205;28;19921;-82
2024/02/27 03:40:20;;;;;;;;;;;;;;;9.07;100.00;98817.78;5053873;28;19961;-81
2024/02/27 03:42:46;;;;;;;;;;;;;;;8.92;100.00;98817.31;5044037;28;20351;-81
2024/02/27 03:45:11;;;;;;;;;;;;;;;8.87;100.00;98821.31;5048684;28;19928;-82
2024/02/27 03:47:36;;;;;;;;;;;;;;;8.84;100.00;98822.16;5053073;28;20367;-81
2024/02/27 03:50:02;;;;;;;;;;;;;;;8.75;100.00;98829.41;5052511;28;20457;-81
2024/02/27 03:52:28;;;;;;;;;;;;;;;8.69;100.00;98826.34;5053224;28;20369;-82
2024/02/27 03:54:53;;;;;;;;;;;;;;;8.67;100.00;98823.25;5038909;28;19913;-82
2024/02/27 03:57:18;;;;;;;;;;;;;;;8.61;100.00;98821.41;5052650;28;19967;-82
2024/02/27 03:59:43;;;;;;;;;;;;;;;8.53;100.00;98829.00;5052786;28;19916;-83
2024/02/27 04:02:09;;;;;;;;;;;;;;;8.47;100.00;98827.94;5052220;28;20397;-81
2024/02/27 04:04:34;;;;;;;;;;;;;;;8.29;100.00;98822.69;5052435;28;19921;-83
2024/02/27 04:06:59;;;;;;;;;;;;;;;8.33;100.00;98820.69;5052708;28;20360;-81
2024/02/27 04:09:25;;;;;;;;;;;;;;;8.36;100.00;98825.34;5052620;28;19917;-82
2024/02/27 04:11:50;;;;;;;;;;;;;;;8.35;100.00;98823.03;5052632;28;19917;-81
2024/02/27 04:14:15;;;;;;;;;;;;;;;8.34;100.00;98818.69;5052534;28;20316;-81
2024/02/27 04:16:41;;;;;;;;;;;;;;;8.31;100.00;98822.31;5052771;28;19975;-82
2024/02/27 04:19:06;;;;;;;;;;;;;;;8.26;100.00;98825.50;5052516;28;20415;-82
2024/02/27 04:21:31;;;;;;;;;;;;;;;8.15;100.00;98837.44;5052542;28;20381;-83
2024/02/27 04:23:56;;;;;;;;;;;;;;;8.06;100.00;98831.69;5051922;28;19917;-82
2024/02/27 04:26:22;;;;;;;;;;;;;;;8.05;100.00;98823.84;5052390;28;19991;-83
2024/02/27 04:28:47;;;;;;;;;;;;;;;8.03;100.00;98821.50;5051941;28;19913;-82
2024/02/27 04:31:12;;;;;;;;;;;;;;;7.99;100.00;98839.28;5052067;28;19917;-82
2024/02/27 04:33:39;;;;;;;;;;;;;;;7.99;100.00;98833.78;5052128;28;19947;-82
2024/02/27 04:36:07;;;;;;;;;;;;;;;7.96;100.00;98832.63;5052012;28;20439;-81
2024/02/27 04:38:32;;;;;;;;;;;;;;;7.93;100.00;98838.97;5051990;28;20307;-83
2024/02/27 04:40:57;;;;;;;;;;;;;;;7.93;100.00;98840.94;5051964;28;19921;-82
2024/02/27 04:43:22;;;;;;;;;;;;;;;7.86;100.00;98836.31;5051810;28;19919;-81
2024/02/27 04:45:48;;;;;;;;;;;;;;;7.86;100.00;98839.06;5052245;28;20454;-81
2024/02/27 04:48:13;;;;;;;;;;;;;;;7.88;100.00;98846.91;5051680;28;19917;-83
2024/02/27 04:50:38;;;;;;;;;;;;;;;7.90;100.00;98850.00;5051860;28;19912;-82
2024/02/27 04:53:04;;;;;;;;;;;;;;;7.89;100.00;98854.75;5051740;28;20380;-82
2024/02/27 04:55:30;;;;;;;;;;;;;;;7.89;100.00;98854.75;5051882;28;20358;-82
2024/02/27 04:57:55;;;;;;;;;;;;;;;7.82;100.00;98856.81;5050766;28;20376;-82
2024/02/27 05:00:21;;;;;;;;;;;;;;;7.82;100.00;98865.84;5042722;28;19927;-83
2024/02/27 05:02:47;;;;;;;;;;;;;;;7.82;100.00;98874.09;5047571;28;20321;-80
2024/02/27 05:05:12;;;;;;;;;;;;;;;7.83;100.00;98880.38;5050285;28;19925;-83
2024/02/27 05:07:37;;;;;;;;;;;;;;;7.76;100.00;98881.25;5038706;28;20061;-83
2024/02/27 05:10:03;;;;;;;;;;;;;;;7.79;100.00;98874.91;5043114;28;20381;-82
2024/02/27 05:12:28;;;;;;;;;;;;;;;7.89;100.00;98878.72;5042898;28;19928;-82
2024/02/27 05:14:53;;;;;;;;;;;;;;;7.96;100.00;98875.84;5051303;28;19924;-81
2024/02/27 05:17:18;;;;;;;;;;;;;;;8.04;100.00;98891.06;5049164;28;19935;-82
2024/02/27 05:19:44;;;;;;;;;;;;;;;8.00;100.00;98884.84;5051579;28;19913;-82
2024/02/27 05:22:09;;;;;;;;;;;;;;;7.99;100.00;98892.31;5050765;28;19924;-82
2024/02/27 05:24:34;;;;;;;;;;;;;;;7.95;100.00;98899.09;5051022;28;20299;-83
2024/02/27 05:27:00;;;;;;;;;;;;;;;8.01;100.00;98909.22;5051559;28;20019;-84
2024/02/27 05:29:25;;;;;;;;;;;;;;;8.04;100.00;98905.63;5051667;28;19913;-81
2024/02/27 05:31:51;;;;;;;;;;;;;;;8.01;100.00;98909.22;5051776;28;19920;-81
2024/02/27 05:34:16;;;;;;;;;;;;;;;7.99;100.00;98911.59;5051829;28;19913;-83
2024/02/27 05:36:42;;;;;;;;;;;;;;;8.03;100.00;98917.03;5051590;28;19916;-83
2024/02/27 05:39:08;;;;;;;;;;;;;;;8.08;100.00;98919.31;5051430;28;19913;-82
2024/02/27 05:41:33;;;;;;;;;;;;;;;8.06;100.00;98928.00;5051278;28;20011;-83
2024/02/27 05:43:59;;;;;;;;;;;;;;;8.04;100.00;98926.84;5050851;28;19913;-82
2024/02/27 05:46:24;;;;;;;;;;;;;;;8.01;100.00;98931.22;5051310;28;19916;-83
2024/02/27 05:48:50;;;;;;;;;;;;;;;8.00;100.00;98934.38;5050421;28;19925;-84
2024/02/27 05:51:15;;;;;;;;;;;;;;;7.87;100.00;98934.16;5051011;28;19912;-83
2024/02/27 05:53:40;;;;;;;;;;;;;;;7.78;100.00;98942.88;5051889;28;19921;-82
2024/02/27 05:56:06;;;;;;;;;;;;;;;7.88;100.00;98938.47;5051950;28;19919;-82
2024/02/27 05:58:31;;;;;;;;;;;;;;;8.19;100.00;98947.50;5050645;28;19964;-83
2024/02/27 06:00:57;;;;;;;;;;;;;;;8.65;100.00;98946.84;5052288;28;19913;-80
2024/02/27 06:03:23;;;;;;;;;;;;;;;9.15;99.47;98952.31;5050730;28;19923;-83
2024/02/27 06:05:49;;;;;;;;;;;;;;;9.94;95.89;98949.63;5052138;28;20007;-81
2024/02/27 06:08:15;;;;;;;;;;;;;;;10.87;89.91;98948.31;5050636;28;19944;-79
2024/02/27 06:10:43;;;;;;;;;;;;;;;11.71;83.66;98964.69;5050869;28;19920;-80
2024/02/27 06:13:08;;;;;;;;;;;;;;;12.49;75.30;98962.44;5050811;28;19917;-77
2024/02/27 06:15:34;;;;;;;;;;;;;;;13.18;71.47;98973.72;5050699;28;20391;-79
2024/02/27 06:17:59;;;;;;;;;;;;;;;13.48;69.06;98979.84;5050761;28;19917;-81
2024/02/27 06:23:08;;;;;;;;;;;;;;;14.39;64.81;98972.97;5052643;28;19924;-79
2024/02/27 06:25:34;;;;;;;;;;;;;;;14.62;61.51;98978.03;5056563;28;19917;-78
2024/02/27 06:27:59;;;;;;;;;;;;;;;14.89;60.07;98973.81;5054481;28;20274;-79
2024/02/27 06:30:24;;;;;;;;;;;;;;;14.24;58.39;98986.59;5053204;28;19921;-77
2024/02/27 06:32:50;;;;;;;;;;;;;;;14.39;58.59;98981.31;5054117;28;19923;-80
2024/02/27 06:35:15;;;;;;;;;;;;;;;14.46;56.27;98986.59;5053926;28;20487;-79
2024/02/27 06:37:41;;;;;;;;;;;;;;;13.88;57.64;98991.91;5053912;28;19925;-79
2024/02/27 06:40:07;;;;;;;;;;;;;;;13.43;60.08;98995.09;5054257;28;19916;-78
2024/02/27 06:42:42;;;;;;;;;;;;;;;12.96;63.26;98993.00;5053935;28;19916;-78
2024/02/27 06:45:08;;;;;;;;;;;;;;;13.01;63.46;99000.81;5052563;28;19935;-77
2024/02/27 06:47:37;;;;;;;;;;;;;;;12.06;68.44;98995.38;5053277;28;20003;-76
2024/02/27 06:50:02;;;;;;;;;;;;;;;12.13;69.71;98993.19;5046967;28;19923;-79
2024/02/27 06:52:27;;;;;;;;;;;;;;;11.93;72.13;98997.34;5042072;28;19917;-80
2024/02/27 06:54:53;;;;;;;;;;;;;;;12.18;70.97;99002.94;5035529;28;19913;-80
2024/02/27 06:57:18;;;;;;;;;;;;;;;12.48;70.37;98993.34;5043029;28;19913;-79
2024/02/27 06:59:43;;;;;;;;;;;;;;;12.85;67.76;98995.34;5045334;28;20011;-78
2024/02/27 07:02:09;;;;;;;;;;;;;;;12.39;70.14;99002.34;5035695;28;19928;-79
2024/02/27 07:04:34;;;;;;;;;;;;;;;12.52;69.07;99002.34;5041486;28;19921;-77
2024/02/27 07:07:00;;;;;;;;;;;;;;;12.53;71.39;99003.91;5053313;28;19912;-80
2024/02/27 07:09:25;;;;;;;;;;;;;;;12.44;71.05;98995.47;5044231;28;20420;-78
2024/02/27 07:11:50;;;;;;;;;;;;;;;12.28;71.64;99001.09;5042689;28;20421;-78
2024/02/27 07:14:16;;;;;;;;;;;;;;;11.63;74.92;99001.31;5053237;28;19967;-79
2024/02/27 07:16:41;;;;;;;;;;;;;;;11.32;77.33;98998.16;5053510;28;20427;-81
2024/02/27 07:19:07;;;;;;;;;;;;;;;11.34;78.73;98996.50;5048874;28;20681;-81
2024/02/27 07:21:32;;;;;;;;;;;;;;;11.18;79.41;98998.50;5054910;28;19917;-80
2024/02/27 07:23:57;;;;;;;;;;;;;;;11.38;80.18;99008.28;5053079;28;19924;-79
2024/02/27 07:26:22;;;;;;;;;;;;;;;11.47;78.31;99004.09;5052642;28;19924;-81
2024/02/27 07:28:48;;;;;;;;;;;;;;;11.47;78.12;99004.88;5052288;28;19917;-79
2024/02/27 07:31:17;;;;;;;;;;;;;;;11.46;79.05;99013.59;5052325;28;19917;-81
2024/02/27 07:33:42;;;;;;;;;;;;;;;11.37;79.68;99003.94;5051575;28;19921;-80
2024/02/27 07:36:07;;;;;;;;;;;;;;;11.36;78.34;99010.69;5053492;28;19913;-80
2024/02/27 07:38:33;;;;;;;;;;;;;;;11.44;77.87;99016.81;5051960;28;19920;-79
2024/02/27 07:40:58;;;;;;;;;;;;;;;11.47;78.08;99007.63;5053410;28;19913;-80
2024/02/27 07:43:24;;;;;;;;;;;;;;;11.59;77.46;99008.91;5051280;28;19923;-81
2024/02/27 07:45:51;;;;;;;;;;;;;;;11.74;78.45;99010.91;5050215;28;19917;-79
2024/02/27 07:48:17;;;;;;;;;;;;;;;11.66;76.84;99011.50;5050888;28;19962;-79
2024/02/27 07:50:42;;;;;;;;;;;;;;;11.72;77.19;99007.75;5050040;28;19917;-79
2024/02/27 07:53:07;;;;;;;;;;;;;;;11.71;77.19;99011.72;5050121;28;19912;-79
2024/02/27 07:55:32;;;;;;;;;;;;;;;11.58;78.43;99016.44;5049880;28;19917;-79
2024/02/27 07:57:58;;;;;;;;;;;;;;;11.55;78.07;99016.53;5051363;28;19912;-80
2024/02/27 08:00:23;;;;;;;;;;;;;;;11.67;76.10;99021.34;5053010;28;20372;-79
2024/02/27 08:02:51;;;;;;;;;;;;;;;11.94;75.47;99016.28;5051033;28;20047;-80
2024/02/27 08:05:16;;;;;;;;;;;;;;;11.87;75.50;99018.47;5050712;28;19925;-80
2024/02/27 08:07:42;;;;;;;;;;;;;;;11.75;76.85;99015.19;5051355;28;19917;-79
2024/02/27 08:10:07;;;;;;;;;;;;;;;11.99;74.78;99018.53;5052480;28;19999;-81
2024/02/27 08:12:33;;;;;;;;;;;;;;;11.90;76.43;99015.59;5053490;28;19969;-81
2024/02/27 08:14:58;;;;;;;;;;;;;;;11.77;75.28;99020.31;5053593;28;20000;-81
2024/02/27 08:17:23;;;;;;;;;;;;;;;11.83;76.44;99015.78;5045571;28;20321;-81
2024/02/27 08:19:49;;;;;;;;;;;;;;;12.11;73.39;99023.34;5051885;28;19924;-80
2024/02/27 08:22:15;;;;;;;;;;;;;;;12.17;72.40;99012.50;5052721;28;19917;-80
2024/02/27 08:24:41;;;;;;;;;;;;;;;11.94;73.29;99015.50;5052163;28;19916;-81
2024/02/27 08:27:06;;;;;;;;;;;;;;;11.77;74.04;99020.31;5052038;28;19919;-82
2024/02/27 08:29:31;;;;;;;;;;;;;;;11.90;74.06;99020.38;5051969;28;19920;-80
2024/02/27 08:31:56;;;;;;;;;;;;;;;12.11;73.64;99023.34;5050776;28;19919;-81
2024/02/27 08:34:23;;;;;;;;;;;;;;;12.20;70.35;99017.91;5052015;28;19995;-79
2024/02/27 08:36:48;;;;;;;;;;;;;;;12.18;70.89;99028.66;5051497;28;19975;-79
2024/02/27 08:39:13;;;;;;;;;;;;;;;12.23;73.15;99022.59;5049302;28;19912;-80
2024/02/27 08:41:39;;;;;;;;;;;;;;;12.22;73.35;99031.34;5048852;28;20280;-80
2024/02/27 08:44:04;;;;;;;;;;;;;;;12.21;71.10;99030.56;5048811;28;20308;-79
2024/02/27 08:46:29;;;;;;;;;;;;;;;12.39;72.84;99027.28;5048230;28;19920;-79
2024/02/27 08:48:57;;;;;;;;;;;;;;;12.31;72.32;99028.69;5048715;28;19913;-78
2024/02/27 08:51:22;;;;;;;;;;;;;;;12.30;72.40;99026.38;5048846;28;19921;-80
2024/02/27 08:53:47;;;;;;;;;;;;;;;12.47;70.22;99030.63;5048887;28;19913;-79
2024/02/27 08:56:13;;;;;;;;;;;;;;;12.49;67.75;99033.69;5048837;28;19913;-79
2024/02/27 08:58:38;;;;;;;;;;;;;;;12.24;68.16;99037.19;5048365;28;19916;-80
2024/02/27 09:01:03;;;;;;;;;;;;;;;12.14;68.72;99038.28;5048835;28;19968;-81
2024/02/27 09:03:29;;;;;;;;;;;;;;;12.31;70.11;99034.22;5046356;28;19920;-79
2024/02/27 09:06:45;;;;;;;;;;;;;;;12.23;68.78;99028.13;4908822;27;7270761;-78
2024/02/27 09:09:10;;;;;;;;;;;;;;;12.38;70.78;99033.25;5137164;27;19926;-77
2024/02/27 09:11:36;;;;;;;;;;;;;;;12.40;71.61;99031.59;5119678;27;19911;-80
2024/02/27 09:14:01;;;;;;;;;;;;;;;12.55;70.03;99031.94;5133321;27;19950;-75
2024/02/27 09:16:29;;;;;;;;;;;;;;;12.64;68.80;99030.09;5145148;27;19964;-79
2024/02/27 09:18:54;;;;;;;;;;;;;;;12.51;69.37;99034.81;5139877;27;19968;-78
2024/02/27 09:21:19;;;;;;;;;;;;;;;12.79;70.06;99035.94;5133159;27;19915;-78
2024/02/27 09:23:46;;;;;;;;;;;;;;;12.78;69.73;99037.16;5118754;27;19918;-79
2024/02/27 09:26:11;;;;;;;;;;;;;;;12.80;68.00;99036.72;5119138;27;19919;-80
2024/02/27 09:28:37;;;;;;;;;;;;;;;12.80;68.36;99043.06;5131233;27;20302;-76
2024/02/27 09:31:05;;;;;;;;;;;;;;;12.62;67.29;99049.13;5162666;27;20063;-79
2024/02/27 09:33:30;;;;;;;;;;;;;;;12.85;66.28;99033.41;5110514;28;19923;-77
2024/02/27 09:35:57;;;;;;;;;;;;;;;12.87;65.57;99033.75;5135713;27;20411;-75
2024/02/27 09:38:22;;;;;;;;;;;;;;;13.02;66.38;99030.06;5121451;27;19926;-78
2024/02/27 09:40:50;;;;;;;;;;;;;;;12.98;64.97;99028.63;5145670;27;19915;-80
2024/02/27 09:43:22;;;;;;;;;;;;;;;12.96;65.41;99025.56;5140555;27;20010;-78
2024/02/27 09:45:47;;;;;;;;;;;;;;;12.98;65.38;99026.63;5123408;27;19919;-79
2024/02/27 09:48:19;;;;;;;;;;;;;;;13.12;66.03;99022.66;5128589;27;19916;-77
2024/02/27 09:50:46;;;;;;;;;;;;;;;13.28;64.14;99025.31;5111916;28;20405;-78
2024/02/27 09:53:12;;;;;;;;;;;;;;;13.31;63.63;99024.44;5111994;27;19911;-78
2024/02/27 09:55:39;;;;;;;;;;;;;;;13.32;65.14;99022.44;5104980;28;19918;-77
2024/02/27 09:58:07;;;;;;;;;;;;;;;13.37;66.04;99013.53;5106358;28;19916;-78
2024/02/27 10:00:32;;;;;;;;;;;;;;;13.63;63.76;99017.00;5123902;27;19966;-78
2024/02/27 10:02:58;;;;;;;;;;;;;;;13.63;61.30;99014.22;5111901;28;20416;-78
2024/02/27 10:05:23;;;;;;;;;;;;;;;13.62;61.10;99029.34;5110722;28;19923;-77
2024/02/27 10:07:49;;;;;;;;;;;;;;;13.67;64.06;99021.22;5110723;28;19919;-77
2024/02/27 10:10:16;;;;;;;;;;;;;;;13.83;62.74;99023.81;5099177;27;19916;-75
2024/02/27 10:12:41;;;;;;;;;;;;;;;13.70;60.40;99017.53;5130899;27;19911;-75
2024/02/27 10:15:08;;;;;;;;;;;;;;;13.63;60.84;99012.22;5117274;27;19912;-77
2024/02/27 10:17:36;;;;;;;;;;;;;;;13.44;62.09;99018.84;5130279;27;20065;-76
2024/02/27 10:20:04;;;;;;;;;;;;;;;13.39;62.86;99009.06;5097996;27;19951;-77
2024/02/27 10:22:30;;;;;;;;;;;;;;;13.53;61.61;99013.38;5093615;28;19931;-77
2024/02/27 10:25:10;;;;;;;;;;;;;;;13.52;64.04;99006.25;5096098;28;19916;-78
2024/02/27 10:27:36;;;;;;;;;;;;;;;13.51;62.41;99006.69;5098619;27;19912;-79
2024/02/27 10:30:03;;;;;;;;;;;;;;;13.58;62.91;99006.47;5100984;28;19912;-75
2024/02/27 10:32:32;;;;;;;;;;;;;;;13.62;63.91;99002.34;5102240;27;19947;-78
2024/02/27 10:35:04;;;;;;;;;;;;;;;13.57;64.22;99004.91;5117564;27;20018;-79
2024/02/27 10:37:35;;;;;;;;;;;;;;;13.61;64.05;99002.81;5129087;27;19912;-76
2024/02/27 10:40:02;;;;;;;;;;;;;;;13.73;63.61;98994.44;5110626;27;19919;-76
2024/02/27 10:42:28;;;;;;;;;;;;;;;13.75;63.79;98997.50;5083472;28;19916;-75
2024/02/27 10:44:57;;;;;;;;;;;;;;;13.84;63.53;98994.81;5096552;28;19922;-77
2024/02/27 10:47:25;;;;;;;;;;;;;;;14.01;64.16;98989.06;5083398;28;19918;-78
2024/02/27 10:49:51;;;;;;;;;;;;;;;14.04;62.73;98982.63;5121462;27;19926;-77
2024/02/27 10:52:20;;;;;;;;;;;;;;;13.91;61.86;98990.25;5088587;28;19912;-77
2024/02/27 10:54:46;;;;;;;;;;;;;;;13.97;62.92;98991.97;5104420;27;19916;-77
2024/02/27 10:57:12;;;;;;;;;;;;;;;14.03;62.20;98983.84;5102991;28;19912;-78
2024/02/27 10:59:39;;;;;;;;;;;;;;;14.04;63.57;98977.06;5116968;27;19946;-78
2024/02/27 11:02:10;;;;;;;;;;;;;;;13.93;61.38;98980.22;5098409;28;19916;-78
2024/02/27 11:04:38;;;;;;;;;;;;;;;14.07;61.08;98979.69;5093628;28;19923;-78
2024/02/27 11:07:04;;;;;;;;;;;;;;;14.10;65.35;98975.25;5071628;28;20342;-78
2024/02/27 11:09:30;;;;;;;;;;;;;;;14.17;62.68;98983.28;5068991;28;19924;-78
2024/02/27 11:11:56;;;;;;;;;;;;;;;14.31;62.94;98980.00;5091086;28;19978;-77
2024/02/27 11:14:42;;;;;;;;;;;;;;;14.36;59.81;98965.50;5084394;28;19923;-81
2024/02/27 11:17:15;;;;;;;;;;;;;;;14.35;59.98;98969.50;5108850;28;19967;-79
2024/02/27 11:19:45;;;;;;;;;;;;;;;14.31;60.91;98962.53;5104170;28;20295;-78
2024/02/27 11:22:11;;;;;;;;;;;;;;;14.30;62.67;98964.53;5103827;28;19916;-78
2024/02/27 11:24:37;;;;;;;;;;;;;;;14.41;59.98;98950.25;5085321;28;19916;-76
2024/02/27 11:27:03;;;;;;;;;;;;;;;14.40;59.71;98951.50;5087528;28;19912;-78
2024/02/27 11:29:29;;;;;;;;;;;;;;;14.40;60.79;98943.19;5082994;28;19911;-78
2024/02/27 11:31:54;;;;;;;;;;;;;;;14.48;60.47;98945.19;5095592;28;20006;-77
2024/02/27 11:34:26;;;;;;;;;;;;;;;14.54;59.99;98943.38;5089106;28;19920;-78
2024/02/27 11:37:10;;;;;;;;;;;;;;;14.57;59.29;98939.69;5091711;28;19919;-77
2024/02/27 11:39:37;;;;;;;;;;;;;;;14.59;60.14;98940.00;5095667;28;19919;-77
2024/02/27 11:42:04;;;;;;;;;;;;;;;14.79;59.54;98933.25;5084119;28;19916;-77
2024/02/27 11:44:29;;;;;;;;;;;;;;;14.83;61.02;98937.44;5088116;28;19919;-77
2024/02/27 11:46:55;;;;;;;;;;;;;;;14.95;59.80;98941.34;5100211;28;20300;-78
2024/02/27 11:49:36;;;;;;;;;;;;;;;14.84;59.29;98943.78;5092119;28;19953;-78
2024/02/27 11:52:01;;;;;;;;;;;;;;;14.98;58.07;98937.66;5092372;28;19916;-77
2024/02/27 11:54:34;;;;;;;;;;;;;;;14.90;58.04;98933.59;5092704;28;19916;-77
2024/02/27 11:57:00;;;;;;;;;;;;;;;14.92;59.50;98931.91;5094236;28;19912;-79
2024/02/27 11:59:32;;;;;;;;;;;;;;;14.97;58.03;98931.31;5079254;28;19916;-76
2024/02/27 12:02:00;;;;;;;;;;;;;;;15.14;57.91;98940.16;5096087;28;19912;-78
2024/02/27 12:04:26;;;;;;;;;;;;;;;15.27;57.83;98937.22;5108285;27;19995;-80
2024/02/27 12:06:51;;;;;;;;;;;;;;;15.33;56.17;98932.59;5088408;27;19981;-77
2024/02/27 12:09:21;;;;;;;;;;;;;;;15.14;56.89;98926.22;5073400;28;19927;-78
2024/02/27 12:11:47;;;;;;;;;;;;;;;15.22;56.80;98935.84;5105127;28;19918;-77
2024/02/27 12:14:13;;;;;;;;;;;;;;;15.09;56.93;98932.41;5064093;28;19917;-79
2024/02/27 12:16:41;;;;;;;;;;;;;;;15.32;56.86;98936.59;5091104;28;19911;-78
2024/02/27 12:19:07;;;;;;;;;;;;;;;15.42;56.95;98933.38;5095638;28;20363;-77
2024/02/27 12:21:33;;;;;;;;;;;;;;;15.63;57.08;98948.41;5095554;28;19970;-77
2024/02/27 12:24:25;;;;;;;;;;;;;;;15.75;55.16;98946.69;5095544;28;19916;-77
2024/02/27 12:26:57;;;;;;;;;;;;;;;15.87;55.22;98932.59;5092471;28;20383;-77
2024/02/27 12:29:24;;;;;;;;;;;;;;;15.76;54.45;98937.13;5095134;28;19919;-78
2024/02/27 12:31:49;;;;;;;;;;;;;;;16.00;53.89;98929.66;5101468;27;19918;-78
2024/02/27 12:34:15;;;;;;;;;;;;;;;16.11;53.98;98932.72;5092820;28;19919;-79
2024/02/27 12:36:40;;;;;;;;;;;;;;;16.47;52.49;98925.47;5086464;28;19984;-77
2024/02/27 12:39:06;;;;;;;;;;;;;;;16.45;52.33;98928.75;5090566;28;19915;-76
2024/02/27 12:41:33;;;;;;;;;;;;;;;16.64;51.80;98926.66;5113635;28;19919;-78
2024/02/27 12:44:00;;;;;;;;;;;;;;;16.39;51.53;98924.28;5108651;28;19912;-77
2024/02/27 12:46:25;;;;;;;;;;;;;;;16.53;51.82;98924.38;5105386;27;19915;-77